createdAt,value
2022-10-22T00:01:41.692Z,3.00
2022-10-22T00:04:08.291Z,2.95
2022-10-22T00:06:35.405Z,3.20
2022-10-22T00:09:02.154Z,2.88
2022-10-22T00:11:28.847Z,3.65
2022-10-22T00:13:55.971Z,2.88
2022-10-22T00:16:22.561Z,2.95
2022-10-22T00:18:49.527Z,2.47
2022-10-22T00:21:16.345Z,2.95
2022-10-22T00:23:43.639Z,2.60
2022-10-22T00:26:11.541Z,3.03
2022-10-22T00:28:38.889Z,2.35
2022-10-22T00:31:06.453Z,2.35
2022-10-22T00:33:33.972Z,2.33
2022-10-22T00:36:00.555Z,2.45
2022-10-22T00:38:27.341Z,2.22
2022-10-22T00:40:54.171Z,2.38
2022-10-22T00:43:21.355Z,2.55
2022-10-22T00:45:47.906Z,2.15
2022-10-22T00:48:24.521Z,2.13
2022-10-22T00:50:56.707Z,2.35
2022-10-22T00:53:28.927Z,2.20
2022-10-22T00:55:56.103Z,1.85
2022-10-22T00:58:26.200Z,2.00
2022-10-22T01:00:53.281Z,2.20
2022-10-22T01:03:19.977Z,2.35
2022-10-22T01:05:56.024Z,1.95
2022-10-22T01:08:28.941Z,2.10
2022-10-22T01:11:12.692Z,2.25
2022-10-22T01:14:03.303Z,1.75
2022-10-22T01:16:53.713Z,1.80
2022-10-22T01:19:41.704Z,1.70
2022-10-22T01:22:21.278Z,2.15
2022-10-22T01:24:53.175Z,2.10
2022-10-22T01:27:19.942Z,1.88
2022-10-22T01:30:03.994Z,1.90
2022-10-22T01:32:36.837Z,1.75
2022-10-22T01:35:09.133Z,2.30
2022-10-22T01:37:43.171Z,1.90
2022-10-22T01:40:11.985Z,1.83
2022-10-22T01:42:38.686Z,1.83
2022-10-22T01:45:13.629Z,1.80
2022-10-22T01:48:09.168Z,1.52
2022-10-22T01:50:58.288Z,2.22
2022-10-22T01:53:40.906Z,1.67
2022-10-22T01:56:19.192Z,1.67
2022-10-22T01:59:15.764Z,1.67
2022-10-22T02:01:54.640Z,2.30
2022-10-22T02:04:34.098Z,1.75
2022-10-22T02:07:05.431Z,2.03
2022-10-22T02:09:33.485Z,2.00
2022-10-22T02:12:03.584Z,1.83
2022-10-22T02:14:31.421Z,1.70
2022-10-22T02:17:00.835Z,1.95
2022-10-22T02:20:06.214Z,1.98
2022-10-22T02:22:33.417Z,1.80
2022-10-22T02:25:00.509Z,2.17
2022-10-22T02:27:45.569Z,1.80
2022-10-22T02:33:10.884Z,2.00
2022-10-22T02:35:40.956Z,1.92
2022-10-22T02:38:08.402Z,2.40
2022-10-22T02:40:35.357Z,2.05
2022-10-22T02:43:04.697Z,2.13
2022-10-22T02:45:32.032Z,2.00
2022-10-22T02:47:58.848Z,2.20
2022-10-22T02:50:25.581Z,2.05
2022-10-22T02:52:52.649Z,1.92
2022-10-22T02:55:19.454Z,1.92
2022-10-22T02:57:46.032Z,1.80
2022-10-22T03:00:13.192Z,2.45
2022-10-22T03:02:39.813Z,1.98
2022-10-22T03:05:06.977Z,2.10
2022-10-22T03:07:34.416Z,1.80
2022-10-22T03:10:01.093Z,2.13
2022-10-22T03:12:27.646Z,2.03
2022-10-22T03:14:54.284Z,1.60
2022-10-22T03:17:20.856Z,1.80
2022-10-22T03:19:47.456Z,2.00
2022-10-22T03:22:19.518Z,1.65
2022-10-22T03:24:49.290Z,2.00
2022-10-22T03:27:18.550Z,1.77
2022-10-22T03:29:46.947Z,1.92
2022-10-22T03:32:13.976Z,2.05
2022-10-22T03:34:40.540Z,2.05
2022-10-22T03:37:07.088Z,1.95
2022-10-22T03:39:35.360Z,1.98
2022-10-22T03:42:03.342Z,1.85
2022-10-22T03:44:30.927Z,1.60
2022-10-22T03:47:00.208Z,1.83
2022-10-22T03:49:29.345Z,1.85
2022-10-22T03:51:55.981Z,1.60
2022-10-22T03:54:22.580Z,1.40
2022-10-22T03:56:49.216Z,1.30
2022-10-22T03:59:16.238Z,1.48
2022-10-22T04:01:42.870Z,1.73
2022-10-22T04:04:09.582Z,1.67
2022-10-22T04:06:36.128Z,1.90
2022-10-22T04:09:02.968Z,1.85
2022-10-22T04:11:29.682Z,1.50
2022-10-22T04:13:56.268Z,1.65
2022-10-22T04:16:25.158Z,1.95
2022-10-22T04:18:54.092Z,2.00
2022-10-22T04:21:20.799Z,2.00
2022-10-22T04:23:50.025Z,2.03
2022-10-22T04:26:18.017Z,2.00
2022-10-22T04:28:46.177Z,1.67
2022-10-22T04:31:15.314Z,1.83
2022-10-22T04:33:43.154Z,1.80
2022-10-22T04:36:15.096Z,1.60
2022-10-22T04:38:43.741Z,1.77
2022-10-22T04:41:17.624Z,1.70
2022-10-22T04:43:45.157Z,1.83
2022-10-22T04:46:13.264Z,8.02
2022-10-22T04:48:41.924Z,7.03
2022-10-22T04:51:11.993Z,6.72
2022-10-22T04:53:40.696Z,15.45
2022-10-22T04:56:11.679Z,22.75
2022-10-22T04:58:39.451Z,5.53
2022-10-22T05:01:11.223Z,1.95
2022-10-22T05:03:37.867Z,2.20
2022-10-22T05:06:04.647Z,2.33
2022-10-22T05:08:31.398Z,2.38
2022-10-22T05:10:58.022Z,1.33
2022-10-22T05:13:24.642Z,1.30
2022-10-22T05:15:52.095Z,1.70
2022-10-22T05:18:21.781Z,1.83
2022-10-22T05:20:49.233Z,1.60
2022-10-22T05:23:15.852Z,1.70
2022-10-22T05:25:42.471Z,3.45
2022-10-22T05:28:09.037Z,5.30
2022-10-22T05:30:35.609Z,6.15
2022-10-22T05:33:02.156Z,6.80
2022-10-22T05:35:28.697Z,6.43
2022-10-22T05:40:30.866Z,1.80
2022-10-22T05:45:25.301Z,1.13
2022-10-22T05:47:51.817Z,1.60
2022-10-22T05:50:19.202Z,1.10
2022-10-22T05:52:45.788Z,1.05
2022-10-22T05:55:12.805Z,1.25
2022-10-22T05:57:40.433Z,0.77
2022-10-22T06:00:10.521Z,1.10
2022-10-22T06:02:39.726Z,1.40
2022-10-22T06:05:06.795Z,1.20
2022-10-22T06:07:33.902Z,1.08
2022-10-22T06:10:00.954Z,1.20
2022-10-22T06:12:27.956Z,2.22
2022-10-22T06:14:54.747Z,3.47
2022-10-22T06:17:21.440Z,3.08
2022-10-22T06:19:48.133Z,3.30
2022-10-22T06:22:14.819Z,3.60
2022-10-22T06:24:42.953Z,1.80
2022-10-22T06:27:11.824Z,2.15
2022-10-22T06:29:38.471Z,1.63
2022-10-22T06:32:05.422Z,2.17
2022-10-22T06:34:32.211Z,1.40
2022-10-22T06:36:58.847Z,1.38
2022-10-22T06:39:25.469Z,1.50
2022-10-22T06:41:52.135Z,1.00
2022-10-22T06:44:20.158Z,1.02
2022-10-22T06:46:50.147Z,0.98
2022-10-22T06:49:17.275Z,1.02
2022-10-22T06:51:44.510Z,2.08
2022-10-22T06:54:11.938Z,3.30
2022-10-22T06:56:38.654Z,3.13
2022-10-22T06:59:05.378Z,2.80
2022-10-22T07:01:34.228Z,2.63
2022-10-22T07:04:01.791Z,1.20
2022-10-22T07:06:29.342Z,1.35
2022-10-22T07:08:57.593Z,1.00
2022-10-22T07:11:46.506Z,1.10
2022-10-22T07:14:14.502Z,1.08
2022-10-22T07:16:45.779Z,1.00
2022-10-22T07:19:13.562Z,1.30
2022-10-22T07:21:40.730Z,1.58
2022-10-22T07:24:07.681Z,1.60
2022-10-22T07:26:34.810Z,1.58
2022-10-22T07:29:01.666Z,1.10
2022-10-22T07:31:28.411Z,1.17
2022-10-22T07:33:55.168Z,1.02
2022-10-22T07:36:21.827Z,1.20
2022-10-22T07:38:53.949Z,1.75
2022-10-22T07:41:20.747Z,1.40
2022-10-22T07:43:47.368Z,1.08
2022-10-22T07:46:14.149Z,0.98
2022-10-22T07:48:41.415Z,1.00
2022-10-22T07:51:08.426Z,0.98
2022-10-22T07:53:35.358Z,1.00
2022-10-22T07:56:02.178Z,1.42
2022-10-22T07:58:28.868Z,2.30
2022-10-22T08:00:57.026Z,1.50
2022-10-22T08:03:23.784Z,1.30
2022-10-22T08:05:51.860Z,1.23
2022-10-22T08:08:18.780Z,1.65
2022-10-22T08:10:47.259Z,1.20
2022-10-22T08:13:14.637Z,2.60
2022-10-22T08:18:15.127Z,2.65
2022-10-22T08:20:42.671Z,1.90
2022-10-22T08:23:09.337Z,1.80
2022-10-22T08:25:36.079Z,2.00
2022-10-22T08:28:02.840Z,1.55
2022-10-22T08:30:29.899Z,2.03
2022-10-22T08:32:56.884Z,1.85
2022-10-22T08:35:23.621Z,2.10
2022-10-22T08:37:50.669Z,2.25
2022-10-22T08:40:28.615Z,2.33
2022-10-22T08:43:04.520Z,2.55
2022-10-22T08:45:41.648Z,3.13
2022-10-22T08:48:23.466Z,2.35
2022-10-22T08:50:53.397Z,2.72
2022-10-22T08:53:25.201Z,1.80
2022-10-22T08:55:53.917Z,2.10
2022-10-22T08:58:46.202Z,2.75
2022-10-22T09:01:41.739Z,2.83
2022-10-22T09:04:30.929Z,1.50
2022-10-22T09:06:59.651Z,2.00
2022-10-22T09:09:31.526Z,1.80
2022-10-22T09:12:00.660Z,1.80
2022-10-22T09:14:27.435Z,2.20
2022-10-22T09:17:12.343Z,1.85
2022-10-22T09:20:03.801Z,2.00
2022-10-22T09:22:46.878Z,2.28
2022-10-22T09:25:28.049Z,2.15
2022-10-22T09:27:58.725Z,1.90
2022-10-22T09:30:31.587Z,1.77
2022-10-22T09:33:11.378Z,2.38
2022-10-22T09:35:51.724Z,2.03
2022-10-22T09:38:21.566Z,2.28
2022-10-22T09:40:50.743Z,2.85
2022-10-22T09:43:18.115Z,2.67
2022-10-22T09:45:46.209Z,2.80
2022-10-22T09:48:26.531Z,2.67
2022-10-22T09:51:24.724Z,3.00
2022-10-22T09:54:00.128Z,2.80
2022-10-22T09:56:55.940Z,2.60
2022-10-22T09:59:30.385Z,3.92
2022-10-22T10:02:37.514Z,4.43
2022-10-22T10:05:06.515Z,7.00
2022-10-22T10:07:35.586Z,6.80
2022-10-22T10:10:03.339Z,7.18
2022-10-22T10:12:57.408Z,8.15
2022-10-22T10:15:38.531Z,5.70
2022-10-22T10:21:19.038Z,7.40
2022-10-22T10:23:48.532Z,6.93
2022-10-22T10:26:31.667Z,6.25
2022-10-22T10:29:07.164Z,3.72
2022-10-22T10:31:55.144Z,4.05
2022-10-22T10:34:57.365Z,3.60
2022-10-22T10:37:27.029Z,4.10
2022-10-22T10:40:30.934Z,3.70
2022-10-22T10:43:04.022Z,4.05
2022-10-22T10:46:12.513Z,3.40
2022-10-22T10:48:44.918Z,3.10
2022-10-22T10:51:35.339Z,3.35
2022-10-22T10:54:18.548Z,3.20
2022-10-22T10:56:50.524Z,3.50
2022-10-22T10:59:43.698Z,3.28
2022-10-22T11:02:36.716Z,3.20
2022-10-22T11:05:15.424Z,2.90
2022-10-22T11:07:49.925Z,2.72
2022-10-22T11:10:27.959Z,2.55
2022-10-22T11:13:01.997Z,3.03
2022-10-22T11:15:33.457Z,2.53
2022-10-22T11:18:11.889Z,3.20
2022-10-22T11:20:50.335Z,3.22
2022-10-22T11:23:24.787Z,3.53
2022-10-22T11:25:51.709Z,3.25
2022-10-22T11:28:28.809Z,3.70
2022-10-22T11:31:01.477Z,2.88
2022-10-22T11:33:37.981Z,3.13
2022-10-22T11:36:08.212Z,3.53
2022-10-22T11:38:36.415Z,3.58
2022-10-22T11:41:13.986Z,2.97
2022-10-22T11:44:08.512Z,3.85
2022-10-22T11:46:53.905Z,2.75
2022-10-22T11:49:26.627Z,3.42
2022-10-22T11:52:23.499Z,4.03
2022-10-22T11:54:54.244Z,2.88
2022-10-22T11:57:26.664Z,4.32
2022-10-22T11:59:59.119Z,3.15
2022-10-22T12:02:28.317Z,3.28
2022-10-22T12:05:17.669Z,3.30
2022-10-22T12:08:00.165Z,2.97
2022-10-22T12:10:34.083Z,3.50
2022-10-22T12:13:21.679Z,2.88
2022-10-22T12:15:51.466Z,2.92
2022-10-22T12:18:18.452Z,2.70
2022-10-22T12:20:50.865Z,3.95
2022-10-22T12:23:17.518Z,3.40
2022-10-22T12:25:44.481Z,3.65
2022-10-22T12:28:13.221Z,3.85
2022-10-22T12:30:39.761Z,3.60
2022-10-22T12:33:16.924Z,3.35
2022-10-22T12:35:45.538Z,3.13
2022-10-22T12:38:23.596Z,3.25
2022-10-22T12:40:54.102Z,3.03
2022-10-22T12:43:27.491Z,2.40
2022-10-22T12:45:54.627Z,2.55
2022-10-22T12:48:39.176Z,3.17
2022-10-22T12:51:09.450Z,2.38
2022-10-22T12:53:39.342Z,2.35
2022-10-22T12:56:10.888Z,2.50
2022-10-22T12:58:59.457Z,2.58
2022-10-22T13:01:29.064Z,2.63
2022-10-22T13:04:36.062Z,2.40
2022-10-22T13:07:19.773Z,3.22
2022-10-22T13:09:59.601Z,2.40
2022-10-22T13:12:28.343Z,2.33
2022-10-22T13:14:54.979Z,2.28
2022-10-22T13:17:39.458Z,2.42
2022-10-22T13:20:20.901Z,2.92
2022-10-22T13:23:01.147Z,2.47
2022-10-22T13:25:33.720Z,2.50
2022-10-22T13:28:04.164Z,2.88
2022-10-22T13:30:34.484Z,2.55
2022-10-22T13:33:04.063Z,2.40
2022-10-22T13:35:33.912Z,2.60
2022-10-22T13:38:01.211Z,2.30
2022-10-22T13:40:28.083Z,2.40
2022-10-22T13:42:54.639Z,3.15
2022-10-22T13:45:21.275Z,2.78
2022-10-22T13:47:53.347Z,2.35
2022-10-22T13:50:21.251Z,2.70
2022-10-22T13:52:52.703Z,2.40
2022-10-22T13:55:20.595Z,2.20
2022-10-22T13:57:47.575Z,2.70
2022-10-22T14:00:16.704Z,2.67
2022-10-22T14:02:44.780Z,2.67
2022-10-22T14:05:11.418Z,2.75
2022-10-22T14:07:39.073Z,2.17
2022-10-22T14:10:16.288Z,2.67
2022-10-22T14:12:42.838Z,2.80
2022-10-22T14:15:12.879Z,2.92
2022-10-22T14:17:43.096Z,2.60
2022-10-22T14:20:16.744Z,2.80
2022-10-22T14:22:43.324Z,2.60
2022-10-22T14:25:14.159Z,2.75
2022-10-22T14:27:40.900Z,3.10
2022-10-22T14:30:08.757Z,2.80
2022-10-22T14:32:35.634Z,3.25
2022-10-22T14:35:02.207Z,3.17
2022-10-22T14:37:28.841Z,3.15
2022-10-22T14:40:01.291Z,3.13
2022-10-22T14:42:29.254Z,3.05
2022-10-22T14:44:55.923Z,2.38
2022-10-22T14:47:22.554Z,3.10
2022-10-22T14:49:49.187Z,2.95
2022-10-22T14:52:15.780Z,3.35
2022-10-22T14:54:42.332Z,2.60
2022-10-22T14:57:11.457Z,2.72
2022-10-22T14:59:38.002Z,2.83
2022-10-22T15:02:04.554Z,3.03
2022-10-22T15:04:31.132Z,2.67
2022-10-22T15:06:59.141Z,2.90
2022-10-22T15:09:25.667Z,2.38
2022-10-22T15:11:52.252Z,2.47
2022-10-22T15:14:18.853Z,3.13
2022-10-22T15:16:45.620Z,3.13
2022-10-22T15:19:12.427Z,3.00
2022-10-22T15:21:39.544Z,2.67
2022-10-22T15:24:06.450Z,2.72
2022-10-22T15:26:33.700Z,2.53
2022-10-22T15:29:02.969Z,2.60
2022-10-22T15:31:51.321Z,2.42
2022-10-22T15:34:24.785Z,2.28
2022-10-22T15:36:53.857Z,3.05
2022-10-22T15:39:20.420Z,2.05
2022-10-22T15:41:48.535Z,3.05
2022-10-22T15:44:23.854Z,2.47
2022-10-22T15:49:18.614Z,2.53
2022-10-22T15:51:45.276Z,3.08
2022-10-22T15:54:15.048Z,2.42
2022-10-22T15:56:41.759Z,2.28
2022-10-22T15:59:09.940Z,2.55
2022-10-22T16:01:36.670Z,2.90
2022-10-22T16:04:04.000Z,2.50
2022-10-22T16:06:34.245Z,2.85
2022-10-22T16:09:04.399Z,2.80
2022-10-22T16:11:31.486Z,2.75
2022-10-22T16:13:59.535Z,2.80
2022-10-22T16:16:29.124Z,2.42
2022-10-22T16:18:56.084Z,2.92
2022-10-22T16:21:24.372Z,3.22
2022-10-22T16:23:51.515Z,2.88
2022-10-22T16:26:19.751Z,3.05
2022-10-22T16:28:48.216Z,2.72
2022-10-22T16:31:19.661Z,3.10
2022-10-22T16:33:49.357Z,3.50
2022-10-22T16:36:19.210Z,2.42
2022-10-22T16:38:46.591Z,2.60
2022-10-22T16:41:21.518Z,3.38
2022-10-22T16:43:50.144Z,3.00
2022-10-22T16:46:19.786Z,3.08
2022-10-22T16:48:54.079Z,3.28
2022-10-22T16:51:23.390Z,3.97
2022-10-22T16:53:54.738Z,3.42
2022-10-22T16:56:22.330Z,3.65
2022-10-22T16:58:51.465Z,3.15
2022-10-22T17:01:20.060Z,2.72
2022-10-22T17:03:47.182Z,3.00
2022-10-22T17:06:14.528Z,3.40
2022-10-22T17:08:42.164Z,3.47
2022-10-22T17:11:17.095Z,3.40
2022-10-22T17:13:49.049Z,3.42
2022-10-22T17:16:18.184Z,3.30
2022-10-22T17:21:19.109Z,2.90
2022-10-22T17:23:46.363Z,2.97
2022-10-22T17:26:22.316Z,3.20
2022-10-22T17:28:49.092Z,3.33
2022-10-22T17:31:22.672Z,2.47
2022-10-22T17:33:51.277Z,2.90
2022-10-22T17:36:19.181Z,6.03
2022-10-22T17:38:49.667Z,3.05
2022-10-22T17:41:19.191Z,3.60
2022-10-22T17:46:30.255Z,2.85
2022-10-22T17:48:59.438Z,3.28
2022-10-22T17:51:28.334Z,3.13
2022-10-22T17:53:55.056Z,3.67
2022-10-22T17:56:24.141Z,2.88
2022-10-22T17:58:50.815Z,3.17
2022-10-22T18:01:33.052Z,2.55
2022-10-22T18:04:05.503Z,2.83
2022-10-22T18:06:32.986Z,3.28
2022-10-22T18:08:59.721Z,3.83
2022-10-22T18:11:28.172Z,3.22
2022-10-22T18:13:56.863Z,3.42
2022-10-22T18:16:24.497Z,3.03
2022-10-22T18:18:53.761Z,3.28
2022-10-22T18:21:22.311Z,4.38
2022-10-22T18:23:48.912Z,6.03
2022-10-22T18:26:17.775Z,5.43
2022-10-22T18:28:45.267Z,6.70
2022-10-22T18:31:20.848Z,6.75
2022-10-22T18:33:48.141Z,5.90
2022-10-22T18:36:19.544Z,5.82
2022-10-22T18:38:53.873Z,5.97
2022-10-22T18:41:21.782Z,6.97
2022-10-22T18:43:55.753Z,6.47
2022-10-22T18:46:24.044Z,6.32
2022-10-22T18:48:53.764Z,5.82
2022-10-22T18:51:21.382Z,5.97
2022-10-22T18:54:04.524Z,5.43
2022-10-22T18:56:32.292Z,6.60
2022-10-22T18:58:58.810Z,5.93
2022-10-22T19:01:29.434Z,6.43
2022-10-22T19:03:57.140Z,5.95
2022-10-22T19:06:34.340Z,7.35
2022-10-22T19:09:04.249Z,5.82
2022-10-22T19:11:31.530Z,5.72
2022-10-22T19:13:58.430Z,5.93
2022-10-22T19:16:26.792Z,5.97
2022-10-22T19:18:59.616Z,6.63
2022-10-22T19:21:26.450Z,5.68
2022-10-22T19:23:56.166Z,5.10
2022-10-22T19:26:24.361Z,5.80
2022-10-22T19:28:51.254Z,6.68
2022-10-22T19:31:21.019Z,6.07
2022-10-22T19:33:50.392Z,6.65
2022-10-22T19:36:18.509Z,5.45
2022-10-22T19:38:47.407Z,6.13
2022-10-22T19:41:17.471Z,5.20
2022-10-22T19:43:45.493Z,5.18
2022-10-22T19:46:12.469Z,5.85
2022-10-22T19:48:39.405Z,5.78
2022-10-22T19:51:09.414Z,6.53
2022-10-22T19:53:38.647Z,5.95
2022-10-22T19:56:07.164Z,5.90
2022-10-22T19:58:34.699Z,5.80
2022-10-22T20:01:05.705Z,6.43
2022-10-22T20:05:59.771Z,5.43
2022-10-22T20:08:26.595Z,6.28
2022-10-22T20:10:53.205Z,6.43
2022-10-22T20:13:20.135Z,6.90
2022-10-22T20:15:52.796Z,5.82
2022-10-22T20:18:22.365Z,5.72
2022-10-22T20:20:49.606Z,6.53
2022-10-22T20:23:16.320Z,6.20
2022-10-22T20:25:45.446Z,5.85
2022-10-22T20:28:13.747Z,6.95
2022-10-22T20:30:46.877Z,6.53
2022-10-22T20:33:13.770Z,5.53
2022-10-22T20:35:40.324Z,6.53
2022-10-22T20:38:08.396Z,6.43
2022-10-22T20:40:35.008Z,6.00
2022-10-22T20:43:01.995Z,6.90
2022-10-22T20:45:29.003Z,7.05
2022-10-22T20:48:02.552Z,7.28
2022-10-22T20:50:32.067Z,5.97
2022-10-22T20:52:59.470Z,5.65
2022-10-22T20:55:27.078Z,5.63
2022-10-22T20:57:54.097Z,5.50
2022-10-22T21:00:20.844Z,5.32
2022-10-22T21:02:47.640Z,5.03
2022-10-22T21:05:14.715Z,6.13
2022-10-22T21:07:41.630Z,5.80
2022-10-22T21:10:08.778Z,6.18
2022-10-22T21:12:35.492Z,6.35
2022-10-22T21:15:02.162Z,6.50
2022-10-22T21:17:28.740Z,6.55
2022-10-22T21:19:55.321Z,6.68
2022-10-22T21:22:21.884Z,6.43
2022-10-22T21:24:48.417Z,6.18
2022-10-22T21:27:14.983Z,6.93
2022-10-22T21:29:41.535Z,7.25
2022-10-22T21:32:08.227Z,8.20
2022-10-22T21:34:38.227Z,7.35
2022-10-22T21:37:05.719Z,6.95
2022-10-22T21:39:32.400Z,6.25
2022-10-22T21:41:59.014Z,6.28
2022-10-22T21:44:25.563Z,7.13
2022-10-22T21:46:52.315Z,7.47
2022-10-22T21:49:19.437Z,7.15
2022-10-22T21:51:45.985Z,7.35
2022-10-22T21:54:12.825Z,6.13
2022-10-22T21:56:40.148Z,6.57
2022-10-22T21:59:07.351Z,6.70
2022-10-22T22:01:34.630Z,5.65
2022-10-22T22:04:01.593Z,6.07
2022-10-22T22:06:33.073Z,6.28
2022-10-22T22:09:01.738Z,5.85
2022-10-22T22:11:28.822Z,6.03
2022-10-22T22:13:57.292Z,5.80
2022-10-22T22:16:31.034Z,5.18
2022-10-22T22:21:39.493Z,5.07
2022-10-22T22:24:06.790Z,4.83
2022-10-22T22:26:33.432Z,6.68
2022-10-22T22:29:00.528Z,5.47
2022-10-22T22:31:29.459Z,4.65
2022-10-22T22:34:04.800Z,5.30
2022-10-22T22:36:39.952Z,5.13
2022-10-22T22:39:10.904Z,4.93
2022-10-22T22:41:37.747Z,5.40
2022-10-22T22:44:04.668Z,5.30
2022-10-22T22:46:31.297Z,5.30
2022-10-22T22:48:57.878Z,5.30
2022-10-22T22:51:24.768Z,6.20
2022-10-22T22:53:51.402Z,6.10
2022-10-22T22:56:25.402Z,5.35
2022-10-22T22:58:52.334Z,6.00
2022-10-22T23:01:25.114Z,6.15
2022-10-22T23:04:00.353Z,5.45
2022-10-22T23:06:29.634Z,6.45
2022-10-22T23:08:56.918Z,5.93
2022-10-22T23:11:25.097Z,6.75
2022-10-22T23:13:57.276Z,6.40
2022-10-22T23:16:26.491Z,6.30
2022-10-22T23:18:54.419Z,6.65
2022-10-22T23:21:33.045Z,6.90
2022-10-22T23:24:03.280Z,6.60
2022-10-22T23:26:32.604Z,7.50
2022-10-22T23:29:06.848Z,7.10
2022-10-22T23:31:33.950Z,7.55
2022-10-22T23:34:00.498Z,7.20
2022-10-22T23:36:27.429Z,5.97
2022-10-22T23:38:54.440Z,7.07
2022-10-22T23:41:21.494Z,5.82
2022-10-22T23:43:48.019Z,6.38
2022-10-22T23:46:15.117Z,5.97
2022-10-22T23:48:41.858Z,6.20
2022-10-22T23:51:14.963Z,6.93
2022-10-22T23:53:43.962Z,6.20
2022-10-22T23:56:14.368Z,6.22
2022-10-22T23:58:41.747Z,6.38
